createdAt,value
2022-09-01T00:01:43.703Z,99.90
2022-09-01T00:04:14.240Z,99.90
2022-09-01T00:06:42.656Z,99.90
2022-09-01T00:09:16.006Z,99.90
2022-09-01T00:11:47.918Z,99.90
2022-09-01T00:14:30.012Z,99.90
2022-09-01T00:17:01.213Z,99.90
2022-09-01T00:19:29.354Z,99.90
2022-09-01T00:21:56.863Z,99.90
2022-09-01T00:24:24.008Z,99.90
2022-09-01T00:26:52.273Z,99.90
2022-09-01T00:29:20.719Z,99.90
2022-09-01T00:31:49.091Z,99.90
2022-09-01T00:34:17.924Z,99.90
2022-09-01T00:36:45.652Z,99.90
2022-09-01T00:39:15.541Z,99.90
2022-09-01T00:41:44.278Z,99.90
2022-09-01T00:44:15.917Z,99.90
2022-09-01T00:46:50.406Z,99.90
2022-09-01T00:49:41.991Z,99.90
2022-09-01T00:52:14.873Z,99.90
2022-09-01T00:54:47.711Z,99.90
2022-09-01T00:57:16.299Z,99.90
2022-09-01T00:59:59.419Z,99.90
2022-09-01T01:02:26.959Z,99.90
2022-09-01T01:04:53.815Z,99.90
2022-09-01T01:07:21.918Z,99.90
2022-09-01T01:09:51.220Z,99.90
2022-09-01T01:12:20.194Z,99.90
2022-09-01T01:14:50.877Z,99.90
2022-09-01T01:17:21.518Z,99.90
2022-09-01T01:19:54.180Z,99.90
2022-09-01T01:23:01.096Z,99.90
2022-09-01T01:25:29.794Z,99.90
2022-09-01T01:28:19.487Z,99.90
2022-09-01T01:30:49.527Z,99.90
2022-09-01T01:33:16.447Z,99.90
2022-09-01T01:35:45.252Z,99.90
2022-09-01T01:38:13.819Z,99.90
2022-09-01T01:40:41.995Z,99.90
2022-09-01T01:43:09.279Z,99.90
2022-09-01T01:45:35.998Z,99.90
2022-09-01T01:48:04.352Z,99.90
2022-09-01T01:50:33.588Z,99.90
2022-09-01T01:53:03.502Z,99.90
2022-09-01T01:55:38.012Z,99.90
2022-09-01T01:58:04.717Z,99.90
2022-09-01T02:00:32.972Z,99.90
2022-09-01T02:03:01.424Z,99.90
2022-09-01T02:05:32.576Z,99.90
2022-09-01T02:08:04.077Z,99.90
2022-09-01T02:10:35.193Z,99.90
2022-09-01T02:13:05.115Z,99.90
2022-09-01T02:15:38.213Z,99.90
2022-09-01T02:18:06.500Z,99.90
2022-09-01T02:20:34.286Z,99.90
2022-09-01T02:23:02.427Z,99.90
2022-09-01T02:25:32.800Z,99.90
2022-09-01T02:28:02.500Z,99.90
2022-09-01T02:30:32.206Z,99.90
2022-09-01T02:33:00.636Z,99.90
2022-09-01T02:35:34.862Z,99.90
2022-09-01T02:38:04.775Z,99.90
2022-09-01T02:40:36.623Z,99.90
2022-09-01T02:43:06.155Z,99.90
2022-09-01T02:45:41.493Z,99.90
2022-09-01T02:48:11.448Z,99.90
2022-09-01T02:50:40.909Z,99.90
2022-09-01T02:53:11.841Z,99.90
2022-09-01T02:55:43.325Z,99.90
2022-09-01T02:58:11.495Z,99.90
2022-09-01T03:00:51.955Z,99.90
2022-09-01T03:03:20.101Z,99.90
2022-09-01T03:05:54.736Z,99.90
2022-09-01T03:08:25.113Z,99.90
2022-09-01T03:10:55.562Z,99.90
2022-09-01T03:13:24.172Z,99.90
2022-09-01T03:15:51.627Z,99.90
2022-09-01T03:18:19.219Z,99.90
2022-09-01T03:20:47.646Z,99.90
2022-09-01T03:23:19.269Z,99.90
2022-09-01T03:25:48.132Z,99.90
2022-09-01T03:28:15.994Z,99.90
2022-09-01T03:30:51.920Z,99.90
2022-09-01T03:33:21.706Z,99.90
2022-09-01T03:35:49.937Z,99.90
2022-09-01T03:38:17.021Z,99.90
2022-09-01T03:40:45.488Z,99.90
2022-09-01T03:43:12.238Z,99.90
2022-09-01T03:45:41.379Z,99.90
2022-09-01T03:48:10.237Z,99.90
2022-09-01T03:50:40.993Z,99.90
2022-09-01T03:53:09.036Z,99.90
2022-09-01T03:55:37.028Z,99.90
2022-09-01T03:58:10.076Z,99.90
2022-09-01T04:00:44.992Z,99.90
2022-09-01T04:03:18.272Z,99.90
2022-09-01T04:05:56.530Z,99.90
2022-09-01T04:08:25.719Z,99.90
2022-09-01T04:10:54.694Z,99.90
2022-09-01T04:13:29.353Z,99.90
2022-09-01T04:15:58.159Z,99.90
2022-09-01T04:18:26.623Z,99.90
2022-09-01T04:20:59.290Z,99.90
2022-09-01T04:23:34.360Z,99.90
2022-09-01T04:26:08.448Z,99.90
2022-09-01T04:28:43.387Z,99.90
2022-09-01T04:31:15.520Z,99.90
2022-09-01T04:33:43.561Z,99.90
2022-09-01T04:36:28.408Z,99.90
2022-09-01T04:39:00.934Z,99.90
2022-09-01T04:41:31.942Z,99.90
2022-09-01T04:44:01.831Z,99.90
2022-09-01T04:46:32.587Z,99.90
2022-09-01T04:49:00.824Z,99.90
2022-09-01T04:51:28.102Z,99.90
2022-09-01T04:53:55.866Z,99.90
2022-09-01T04:56:22.764Z,99.90
2022-09-01T04:58:51.285Z,99.90
2022-09-01T05:01:24.009Z,99.90
2022-09-01T05:03:52.540Z,99.90
2022-09-01T05:06:20.917Z,99.90
2022-09-01T05:08:47.676Z,99.90
2022-09-01T05:11:15.836Z,99.90
2022-09-01T05:13:47.603Z,99.90
2022-09-01T05:16:24.096Z,99.90
2022-09-01T05:18:53.568Z,99.90
2022-09-01T05:21:22.839Z,99.90
2022-09-01T05:23:49.574Z,99.90
2022-09-01T05:26:21.142Z,99.90
2022-09-01T05:28:52.020Z,99.90
2022-09-01T05:31:24.631Z,99.90
2022-09-01T05:33:52.661Z,99.90
2022-09-01T05:36:23.667Z,99.90
2022-09-01T05:38:50.946Z,99.90
2022-09-01T05:41:20.531Z,99.90
2022-09-01T05:43:49.756Z,99.90
2022-09-01T05:46:20.637Z,99.90
2022-09-01T05:48:50.480Z,99.90
2022-09-01T05:51:42.651Z,99.90
2022-09-01T05:54:09.666Z,99.90
2022-09-01T05:56:42.714Z,99.90
2022-09-01T05:59:29.250Z,99.90
2022-09-01T06:01:57.616Z,99.90
2022-09-01T06:04:25.424Z,99.90
2022-09-01T06:07:10.282Z,99.90
2022-09-01T06:09:43.283Z,99.90
2022-09-01T06:12:12.384Z,99.90
2022-09-01T06:14:40.081Z,99.90
2022-09-01T06:17:06.806Z,99.90
2022-09-01T06:19:36.990Z,99.90
2022-09-01T06:22:05.827Z,99.90
2022-09-01T06:24:33.903Z,99.90
2022-09-01T06:27:02.216Z,99.90
2022-09-01T06:29:32.350Z,99.90
2022-09-01T06:32:02.983Z,99.90
2022-09-01T06:34:30.715Z,99.90
2022-09-01T06:36:57.428Z,99.90
2022-09-01T06:39:24.185Z,99.90
2022-09-01T06:41:52.355Z,99.90
2022-09-01T06:44:21.670Z,99.90
2022-09-01T06:46:53.728Z,99.90
2022-09-01T06:49:21.577Z,99.90
2022-09-01T06:51:48.415Z,99.90
2022-09-01T06:54:16.710Z,99.90
2022-09-01T06:56:45.010Z,99.90
2022-09-01T06:59:20.509Z,99.90
2022-09-01T07:01:48.610Z,99.90
2022-09-01T07:04:15.374Z,99.90
2022-09-01T07:09:48.006Z,99.90
2022-09-01T07:12:26.764Z,99.90
2022-09-01T07:17:48.228Z,99.90
2022-09-01T07:23:05.669Z,99.90
2022-09-01T07:39:52.561Z,99.90
2022-09-01T07:42:30.580Z,99.90
2022-09-01T07:42:32.105Z,99.90
2022-09-01T07:42:56.719Z,99.90
2022-09-01T07:45:30.857Z,99.90
2022-09-01T07:48:00.317Z,99.90
2022-09-01T07:51:34.281Z,99.90
2022-09-01T07:53:35.956Z,99.90
2022-09-01T07:56:11.237Z,99.90
2022-09-01T07:58:40.063Z,99.90
2022-09-01T08:01:10.006Z,99.90
2022-09-01T08:03:38.233Z,99.90
2022-09-01T08:06:09.463Z,99.90
2022-09-01T08:08:39.413Z,99.90
2022-09-01T08:11:08.775Z,99.90
2022-09-01T08:13:41.617Z,99.90
2022-09-01T08:16:18.721Z,99.90
2022-09-01T08:18:48.564Z,99.90
2022-09-01T08:21:17.664Z,99.90
2022-09-01T08:23:45.822Z,99.90
2022-09-01T08:26:16.698Z,99.90
2022-09-01T08:28:47.482Z,99.90
2022-09-01T08:31:23.933Z,99.90
2022-09-01T08:33:52.465Z,99.90
2022-09-01T08:36:24.026Z,99.90
2022-09-01T08:38:53.024Z,99.90
2022-09-01T08:41:47.785Z,99.90
2022-09-01T08:44:44.436Z,99.90
2022-09-01T08:47:16.683Z,99.90
2022-09-01T08:49:47.181Z,99.90
2022-09-01T08:52:38.560Z,99.90
2022-09-01T08:55:22.276Z,99.90
2022-09-01T08:57:50.945Z,99.90
2022-09-01T09:00:28.422Z,99.90
2022-09-01T09:03:07.743Z,99.90
2022-09-01T09:06:12.730Z,99.90
2022-09-01T09:09:08.509Z,99.90
2022-09-01T09:11:56.510Z,99.90
2022-09-01T09:15:05.169Z,99.90
2022-09-01T09:17:39.864Z,99.90
2022-09-01T09:20:08.858Z,99.90
2022-09-01T09:22:37.455Z,99.90
2022-09-01T09:25:19.444Z,99.90
2022-09-01T09:27:49.695Z,99.90
2022-09-01T09:30:29.665Z,99.90
2022-09-01T09:35:49.883Z,99.90
2022-09-01T09:38:25.272Z,99.90
2022-09-01T09:41:18.793Z,99.90
2022-09-01T09:44:06.806Z,99.90
2022-09-01T09:46:47.960Z,99.90
2022-09-01T09:49:36.087Z,99.90
2022-09-01T09:52:09.505Z,99.90
2022-09-01T09:55:17.398Z,99.90
2022-09-01T09:57:44.831Z,99.90
2022-09-01T10:00:31.459Z,99.90
2022-09-01T10:03:11.260Z,99.90
2022-09-01T10:05:49.872Z,99.90
2022-09-01T10:08:53.584Z,99.90
2022-09-01T10:11:41.328Z,99.90
2022-09-01T10:14:47.984Z,99.90
2022-09-01T10:17:30.143Z,99.90
2022-09-01T10:20:02.340Z,99.90
2022-09-01T10:22:32.827Z,99.90
2022-09-01T10:25:03.315Z,99.90
2022-09-01T10:27:37.611Z,99.90
2022-09-01T10:30:18.389Z,99.90
2022-09-01T10:33:06.850Z,99.90
2022-09-01T10:35:44.900Z,99.90
2022-09-01T10:38:16.887Z,99.90
2022-09-01T10:40:50.161Z,99.90
2022-09-01T10:43:46.209Z,99.90
2022-09-01T10:46:26.199Z,99.50
2022-09-01T10:49:03.251Z,99.00
2022-09-01T10:51:38.796Z,98.80
2022-09-01T10:54:07.100Z,98.60
2022-09-01T10:56:52.171Z,97.90
2022-09-01T10:59:45.076Z,97.40
2022-09-01T11:02:35.957Z,97.40
2022-09-01T11:05:09.165Z,97.20
2022-09-01T11:10:57.147Z,96.60
2022-09-01T11:13:49.963Z,95.80
2022-09-01T11:16:50.018Z,94.50
2022-09-01T11:19:33.381Z,95.20
2022-09-01T11:22:26.382Z,94.60
2022-09-01T11:25:38.688Z,94.00
2022-09-01T11:28:24.526Z,94.50
2022-09-01T11:31:09.706Z,94.30
2022-09-01T11:34:03.984Z,93.40
2022-09-01T11:36:56.856Z,92.90
2022-09-01T11:39:48.163Z,92.60
2022-09-01T11:42:28.036Z,91.80
2022-09-01T11:45:21.807Z,91.70
2022-09-01T11:48:09.398Z,90.60
2022-09-01T11:50:38.694Z,90.10
2022-09-01T11:53:15.867Z,88.40
2022-09-01T11:55:46.517Z,88.50
2022-09-01T11:58:32.044Z,86.80
2022-09-01T12:01:22.590Z,88.00
2022-09-01T12:03:51.461Z,86.90
2022-09-01T12:06:28.541Z,87.30
2022-09-01T12:09:01.298Z,86.10
2022-09-01T12:11:34.526Z,84.50
2022-09-01T12:14:11.646Z,85.10
2022-09-01T12:16:40.764Z,83.60
2022-09-01T12:19:08.565Z,82.00
2022-09-01T12:21:39.565Z,81.30
2022-09-01T12:24:19.252Z,84.30
2022-09-01T12:26:49.360Z,86.60
2022-09-01T12:29:17.560Z,87.30
2022-09-01T12:31:48.089Z,89.10
2022-09-01T12:34:47.833Z,88.20
2022-09-01T12:37:26.121Z,89.10
2022-09-01T12:39:56.620Z,89.60
2022-09-01T12:42:38.909Z,90.10
2022-09-01T12:45:10.785Z,90.60
2022-09-01T12:47:40.368Z,90.70
2022-09-01T12:50:13.742Z,90.50
2022-09-01T12:52:46.449Z,90.60
2022-09-01T12:58:10.010Z,90.80
2022-09-01T13:01:01.820Z,90.40
2022-09-01T13:03:29.914Z,89.40
2022-09-01T13:05:59.203Z,90.00
2022-09-01T13:08:30.682Z,90.00
2022-09-01T13:11:11.312Z,88.30
2022-09-01T13:13:38.296Z,87.00
2022-09-01T13:16:05.468Z,85.10
2022-09-01T13:18:32.697Z,84.60
2022-09-01T13:20:59.481Z,84.10
2022-09-01T13:23:27.404Z,83.50
2022-09-01T13:25:55.245Z,81.20
2022-09-01T13:28:23.280Z,81.20
2022-09-01T13:36:51.727Z,82.00
2022-09-01T13:39:21.305Z,82.50
2022-09-01T13:41:51.118Z,81.70
2022-09-01T13:44:18.651Z,80.60
2022-09-01T13:47:28.686Z,80.90
2022-09-01T13:49:44.541Z,81.10
2022-09-01T13:52:23.167Z,80.70
2022-09-01T13:54:51.113Z,80.50
2022-09-01T13:57:19.326Z,79.90
2022-09-01T13:59:47.402Z,79.40
2022-09-01T14:02:15.651Z,79.10
2022-09-01T14:04:44.439Z,78.90
2022-09-01T14:07:13.317Z,80.00
2022-09-01T14:09:43.096Z,80.80
2022-09-01T14:12:10.013Z,80.60
2022-09-01T14:17:26.942Z,81.30
2022-09-01T14:19:54.971Z,80.70
2022-09-01T14:22:22.977Z,79.60
2022-09-01T14:24:55.566Z,80.00
2022-09-01T14:27:23.793Z,79.70
2022-09-01T14:29:55.067Z,79.10
2022-09-01T14:32:23.390Z,79.00
2022-09-01T14:34:50.069Z,78.90
2022-09-01T14:37:16.754Z,77.80
2022-09-01T14:39:43.452Z,76.50
2022-09-01T14:42:11.237Z,76.10
2022-09-01T14:44:39.475Z,77.70
2022-09-01T14:47:07.295Z,78.20
2022-09-01T14:49:41.085Z,76.70
2022-09-01T14:52:10.722Z,75.90
2022-09-01T14:54:41.208Z,74.80
2022-09-01T14:59:57.426Z,73.30
2022-09-01T15:02:26.116Z,71.20
2022-09-01T15:04:52.927Z,71.20
2022-09-01T15:07:20.865Z,70.90
2022-09-01T15:09:49.241Z,71.80
2022-09-01T15:12:16.991Z,70.80
2022-09-01T15:14:44.839Z,72.30
2022-09-01T15:17:12.637Z,72.30
2022-09-01T15:19:39.494Z,71.90
2022-09-01T15:22:10.254Z,71.40
2022-09-01T15:24:38.476Z,70.80
2022-09-01T15:27:06.668Z,70.50
2022-09-01T15:29:37.456Z,70.80
2022-09-01T15:32:06.081Z,70.50
2022-09-01T15:34:34.113Z,70.70
2022-09-01T15:37:00.818Z,70.40
2022-09-01T15:39:33.261Z,70.50
2022-09-01T15:42:06.420Z,70.30
2022-09-01T15:44:35.030Z,69.70
2022-09-01T15:47:02.964Z,70.10
2022-09-01T15:49:31.115Z,70.50
2022-09-01T15:51:59.574Z,70.20
2022-09-01T15:54:30.568Z,70.00
2022-09-01T15:56:58.577Z,70.60
2022-09-01T15:59:26.619Z,70.50
2022-09-01T16:01:57.094Z,69.80
2022-09-01T16:04:27.818Z,70.10
2022-09-01T16:06:56.253Z,70.10
2022-09-01T16:09:23.518Z,69.70
2022-09-01T16:11:50.229Z,69.40
2022-09-01T16:14:18.880Z,69.70
2022-09-01T16:17:02.537Z,71.50
2022-09-01T16:19:51.674Z,68.80
2022-09-01T16:22:35.514Z,70.80
2022-09-01T16:25:13.167Z,69.00
2022-09-01T16:27:42.991Z,69.30
2022-09-01T16:30:16.841Z,69.40
2022-09-01T16:32:48.736Z,69.30
2022-09-01T16:35:17.727Z,70.00
2022-09-01T16:37:53.840Z,69.50
2022-09-01T16:40:38.621Z,70.20
2022-09-01T16:43:37.911Z,70.80
2022-09-01T16:46:33.528Z,69.80
2022-09-01T16:49:34.474Z,70.70
2022-09-01T16:52:37.105Z,71.40
2022-09-01T16:55:41.373Z,71.40
2022-09-01T16:58:14.669Z,72.10
2022-09-01T17:01:43.499Z,71.70
2022-09-01T17:04:32.365Z,71.30
2022-09-01T17:07:13.776Z,72.00
2022-09-01T17:09:59.763Z,72.40
2022-09-01T17:12:47.147Z,73.90
2022-09-01T17:15:38.368Z,72.00
2022-09-01T17:18:35.043Z,73.20
2022-09-01T17:21:26.670Z,72.70
2022-09-01T17:24:05.771Z,73.00
2022-09-01T17:26:34.136Z,73.30
2022-09-01T17:29:22.685Z,73.60
2022-09-01T17:31:58.582Z,73.50
2022-09-01T17:34:28.277Z,74.50
2022-09-01T17:37:22.410Z,74.50
2022-09-01T17:40:23.551Z,75.10
2022-09-01T17:43:27.054Z,76.20
2022-09-01T17:46:27.782Z,77.20
2022-09-01T17:49:25.040Z,78.80
2022-09-01T17:52:27.699Z,79.60
2022-09-01T17:55:30.854Z,80.50
2022-09-01T17:58:18.739Z,81.20
2022-09-01T18:01:10.175Z,81.50
2022-09-01T18:04:20.498Z,82.20
2022-09-01T18:07:10.898Z,82.30
2022-09-01T18:09:45.254Z,82.70
2022-09-01T18:12:18.413Z,82.90
2022-09-01T18:14:50.590Z,82.90
2022-09-01T18:17:40.172Z,83.20
2022-09-01T18:20:18.056Z,83.10
2022-09-01T18:23:10.737Z,83.30
2022-09-01T18:25:47.791Z,83.80
2022-09-01T18:28:16.666Z,83.90
2022-09-01T18:30:57.879Z,83.80
2022-09-01T18:33:38.114Z,84.10
2022-09-01T18:36:31.816Z,84.30
2022-09-01T18:39:18.673Z,84.80
2022-09-01T18:42:13.657Z,85.00
2022-09-01T18:45:08.587Z,85.90
2022-09-01T18:47:44.015Z,85.80
2022-09-01T18:50:39.089Z,85.90
2022-09-01T18:53:43.743Z,86.70
2022-09-01T18:56:22.368Z,87.20
2022-09-01T18:59:26.749Z,87.20
2022-09-01T19:02:36.123Z,87.70
2022-09-01T19:05:35.619Z,89.40
2022-09-01T19:08:29.535Z,89.40
2022-09-01T19:11:23.512Z,89.70
2022-09-01T19:14:21.450Z,90.30
2022-09-01T19:16:51.151Z,90.40
2022-09-01T19:19:46.619Z,90.50
2022-09-01T19:22:38.334Z,90.70
2022-09-01T19:25:12.506Z,91.10
2022-09-01T19:27:53.168Z,91.40
2022-09-01T19:30:21.080Z,91.50
2022-09-01T19:32:50.159Z,92.00
2022-09-01T19:35:19.528Z,92.10
2022-09-01T19:37:48.103Z,92.40
2022-09-01T19:40:25.436Z,92.50
2022-09-01T19:43:10.059Z,92.60
2022-09-01T19:46:04.735Z,93.10
2022-09-01T19:48:45.675Z,93.20
2022-09-01T19:51:30.718Z,93.20
2022-09-01T19:54:07.783Z,93.70
2022-09-01T19:56:52.935Z,93.90
2022-09-01T19:59:51.412Z,93.70
2022-09-01T20:02:41.051Z,94.00
2022-09-01T20:05:31.613Z,94.10
2022-09-01T20:08:10.481Z,94.70
2022-09-01T20:10:58.422Z,94.80
2022-09-01T20:13:52.422Z,95.00
2022-09-01T20:16:24.941Z,95.10
2022-09-01T20:19:51.029Z,94.90
2022-09-01T20:22:40.581Z,95.00
2022-09-01T20:25:14.912Z,95.20
2022-09-01T20:28:00.563Z,95.60
2022-09-01T20:30:43.457Z,95.90
2022-09-01T20:33:31.292Z,95.90
2022-09-01T20:36:38.453Z,96.10
2022-09-01T20:39:52.851Z,96.30
2022-09-01T20:42:45.337Z,96.40
2022-09-01T20:45:18.499Z,96.40
2022-09-01T20:48:07.728Z,96.60
2022-09-01T20:51:05.400Z,96.80
2022-09-01T20:53:59.095Z,96.90
2022-09-01T20:56:47.172Z,97.00
2022-09-01T20:59:16.543Z,97.30
2022-09-01T21:01:57.561Z,97.50
2022-09-01T21:04:57.019Z,97.90
2022-09-01T21:07:36.808Z,98.30
2022-09-01T21:10:40.858Z,98.50
2022-09-01T21:13:50.504Z,98.80
2022-09-01T21:16:17.236Z,98.80
2022-09-01T21:18:46.495Z,99.10
2022-09-01T21:21:21.821Z,99.20
2022-09-01T21:23:48.583Z,99.70
2022-09-01T21:26:17.285Z,99.70
2022-09-01T21:28:50.691Z,99.90
2022-09-01T21:31:18.827Z,99.90
2022-09-01T21:33:45.762Z,99.90
2022-09-01T21:36:13.823Z,99.90
2022-09-01T21:38:41.862Z,99.90
2022-09-01T21:41:12.961Z,99.90
2022-09-01T21:43:44.761Z,99.90
2022-09-01T21:46:12.836Z,99.90
2022-09-01T21:48:39.528Z,99.90
2022-09-01T21:51:07.949Z,99.90
2022-09-01T21:53:35.960Z,99.90
2022-09-01T21:56:04.227Z,99.90
2022-09-01T21:58:32.233Z,99.90
2022-09-01T22:01:04.412Z,99.90
2022-09-01T22:03:32.728Z,99.90
2022-09-01T22:06:01.462Z,99.90
2022-09-01T22:08:28.158Z,99.90
2022-09-01T22:11:04.803Z,99.90
2022-09-01T22:13:34.966Z,99.90
2022-09-01T22:16:05.237Z,99.90
2022-09-01T22:18:34.311Z,99.90
2022-09-01T22:21:07.394Z,99.90
2022-09-01T22:23:34.474Z,99.90
2022-09-01T22:26:03.358Z,99.90
2022-09-01T22:28:31.994Z,99.90
2022-09-01T22:31:00.216Z,99.90
2022-09-01T22:33:27.235Z,99.90
2022-09-01T22:35:56.489Z,99.90
2022-09-01T22:38:24.665Z,99.90
2022-09-01T22:40:55.780Z,99.90
2022-09-01T22:43:25.003Z,99.90
2022-09-01T22:45:53.770Z,99.90
2022-09-01T22:48:22.735Z,99.90
2022-09-01T22:50:51.806Z,99.90
2022-09-01T22:53:21.380Z,99.90
2022-09-01T22:55:51.461Z,99.90
2022-09-01T22:58:19.641Z,99.90
2022-09-01T23:00:52.455Z,99.90
2022-09-01T23:03:20.669Z,99.90
2022-09-01T23:05:48.575Z,99.90
2022-09-01T23:08:17.085Z,99.90
2022-09-01T23:10:44.795Z,99.90
2022-09-01T23:13:15.611Z,99.90
2022-09-01T23:15:43.582Z,99.90
2022-09-01T23:18:12.713Z,99.90
2022-09-01T23:20:39.406Z,99.90
2022-09-01T23:23:06.083Z,99.90
2022-09-01T23:25:32.822Z,99.90
2022-09-01T23:28:00.698Z,99.90
2022-09-01T23:30:28.953Z,99.90
2022-09-01T23:32:57.146Z,99.90
2022-09-01T23:35:24.986Z,99.90
2022-09-01T23:37:51.705Z,99.90
2022-09-01T23:40:19.727Z,99.90
2022-09-01T23:42:47.022Z,99.90
2022-09-01T23:45:15.005Z,99.90
2022-09-01T23:47:42.919Z,99.90
2022-09-01T23:50:11.382Z,99.90
2022-09-01T23:52:39.267Z,99.90
2022-09-01T23:55:09.121Z,99.90
2022-09-01T23:57:36.980Z,99.90
